Time;durP1;ratioP1;P1;durP2;ratioP2;P2;SDS_P1;SDS_P2;PMS_P1;PMS_P2;Temp;Humidity;BMP_temperature;BMP_pressure;BME280_temperature;BME280_humidity;BME280_pressure;Samples;Min_cycle;Max_cycle;Signal;HPM_P1;HPM_P2
2023/01/08 00:00:56;;;;;;;1999.90;999.90;;;11.50;99.90;;;;;;5035594;28;20493;-68
2023/01/08 00:03:23;;;;;;;1999.90;999.90;;;11.30;99.90;;;;;;5034499;28;20849;-69
2023/01/08 00:05:49;;;;;;;1999.90;999.90;;;11.50;99.90;;;;;;5034156;28;20192;-69
2023/01/08 00:08:15;;;;;;;1999.90;999.90;;;11.50;99.90;;;;;;5034360;28;20418;-69
2023/01/08 00:10:40;;;;;;;1999.90;999.90;;;11.40;99.90;;;;;;5035293;28;20399;-69
2023/01/08 00:13:06;;;;;;;1999.90;999.90;;;11.40;99.90;;;;;;5035335;28;20939;-69
2023/01/08 00:15:35;;;;;;;1999.90;999.90;;;11.40;99.90;;;;;;5035039;28;20218;-69
2023/01/08 00:18:01;;;;;;;1999.90;999.90;;;11.40;99.90;;;;;;5034497;28;20529;-69
2023/01/08 00:20:27;;;;;;;1999.90;999.90;;;11.40;99.90;;;;;;5035400;28;20464;-69
2023/01/08 00:22:52;;;;;;;1999.90;999.90;;;11.40;99.90;;;;;;5035420;28;20635;-69
2023/01/08 00:25:18;;;;;;;1999.90;999.90;;;11.40;99.90;;;;;;5035444;28;20509;-69
2023/01/08 00:27:44;;;;;;;1999.90;999.90;;;11.40;99.90;;;;;;5034971;28;20172;-69
2023/01/08 00:30:11;;;;;;;1999.90;999.90;;;11.40;99.90;;;;;;5035479;28;20796;-69
2023/01/08 00:32:37;;;;;;;1999.90;999.90;;;11.40;99.90;;;;;;5034837;28;20171;-69
2023/01/08 00:35:03;;;;;;;1999.90;999.90;;;11.50;99.90;;;;;;5034682;28;20851;-69
2023/01/08 00:37:29;;;;;;;1999.90;999.90;;;11.50;99.90;;;;;;5034699;28;20164;-69
2023/01/08 00:39:55;;;;;;;1999.90;999.90;;;11.60;96.10;;;;;;5034394;28;20468;-69
2023/01/08 00:42:20;;;;;;;1999.90;999.90;;;11.50;96.80;;;;;;5034564;28;20208;-69
2023/01/08 00:44:46;;;;;;;1999.90;999.90;;;11.60;99.90;;;;;;5034670;28;20188;-70
2023/01/08 00:47:12;;;;;;;1999.90;999.90;;;11.50;99.90;;;;;;5033584;28;20175;-69
2023/01/08 00:49:37;;;;;;;1999.90;999.90;;;11.50;99.70;;;;;;5033240;28;20172;-69
2023/01/08 00:52:03;;;;;;;1999.90;999.90;;;11.60;98.90;;;;;;5034409;28;20441;-69
2023/01/08 00:54:29;;;;;;;1999.90;999.90;;;11.60;96.30;;;;;;5035566;28;20188;-69
2023/01/08 00:56:54;;;;;;;1999.90;999.90;;;11.60;99.90;;;;;;5035582;28;20408;-69
2023/01/08 00:59:20;;;;;;;1999.90;999.90;;;11.60;99.90;;;;;;5034691;28;20164;-68
2023/01/08 01:01:47;;;;;;;1999.90;999.90;;;11.50;99.90;;;;;;5034910;28;20654;-69
2023/01/08 01:04:13;;;;;;;1999.90;999.90;;;11.50;99.90;;;;;;5034703;28;20987;-69
2023/01/08 01:06:40;;;;;;;1999.90;999.90;;;11.60;99.90;;;;;;5034975;28;20426;-69
2023/01/08 01:09:06;;;;;;;1999.90;999.90;;;11.60;99.90;;;;;;5034995;28;20399;-69
2023/01/08 01:11:32;;;;;;;1999.90;999.90;;;11.60;99.90;;;;;;5035407;28;20855;-69
2023/01/08 01:13:58;;;;;;;1999.90;999.90;;;11.60;99.90;;;;;;5034913;28;20437;-70
2023/01/08 01:16:24;;;;;;;1999.90;999.90;;;11.60;99.90;;;;;;5035023;28;20614;-69
2023/01/08 01:18:51;;;;;;;1999.90;999.90;;;11.60;99.90;;;;;;5034417;28;20435;-69
2023/01/08 01:21:24;;;;;;;1999.90;999.90;;;11.60;99.90;;;;;;5035485;28;20221;-69
2023/01/08 01:23:53;;;;;;;1999.90;999.90;;;11.60;99.90;;;;;;5035682;28;20762;-71
2023/01/08 01:26:20;;;;;;;1999.90;999.90;;;11.50;99.90;;;;;;5034634;28;20417;-69
2023/01/08 01:28:47;;;;;;;1999.90;999.90;;;11.50;99.90;;;;;;5032490;28;20410;-69
2023/01/08 01:31:13;;;;;;;1999.90;999.90;;;11.50;99.90;;;;;;5034219;28;20424;-69
2023/01/08 01:33:40;;;;;;;1999.90;999.90;;;11.50;99.90;;;;;;5035870;28;20522;-69
2023/01/08 01:36:06;;;;;;;1999.90;999.90;;;11.50;99.90;;;;;;5036148;28;20458;-70
2023/01/08 01:38:32;;;;;;;1999.90;999.90;;;11.50;99.90;;;;;;5035789;28;20413;-69
2023/01/08 01:40:57;;;;;;;1999.90;999.90;;;11.60;99.90;;;;;;5035961;28;20494;-69
2023/01/08 01:43:41;;;;;;;1999.90;999.90;;;11.60;99.90;;;;;;5038022;28;20410;-69
2023/01/08 01:46:15;;;;;;;1999.90;999.90;;;11.50;99.90;;;;;;5040804;28;20237;-69
2023/01/08 01:48:42;;;;;;;1999.90;999.90;;;11.50;99.90;;;;;;5040127;28;20412;-69
2023/01/08 01:51:07;;;;;;;1999.90;999.90;;;11.60;99.90;;;;;;5040224;28;20427;-69
2023/01/08 01:53:35;;;;;;;1999.90;999.90;;;11.50;99.90;;;;;;5036488;28;20792;-68
2023/01/08 01:56:03;;;;;;;1999.90;999.90;;;11.60;99.90;;;;;;5037317;28;20214;-69
2023/01/08 01:58:30;;;;;;;1999.90;999.90;;;11.50;99.90;;;;;;5044731;28;20403;-69
2023/01/08 02:01:01;;;;;;;1999.90;999.90;;;11.50;99.90;;;;;;5041025;28;20421;-69
2023/01/08 02:03:32;;;;;;;1999.90;999.90;;;11.60;99.90;;;;;;5037520;28;20446;-69
2023/01/08 02:06:13;;;;;;;1999.90;999.90;;;11.60;99.90;;;;;;5040515;28;20418;-69
2023/01/08 02:09:02;;;;;;;1999.90;999.90;;;11.60;99.90;;;;;;5040774;28;20982;-69
2023/01/08 02:15:02;;;;;;;1999.90;999.90;;;11.50;99.90;;;;;;5028051;28;20538;-69
2023/01/08 02:17:51;;;;;;;1999.90;999.90;;;11.50;99.90;;;;;;5040039;28;20437;-69
2023/01/08 02:20:43;;;;;;;1999.90;999.90;;;11.50;99.90;;;;;;5040171;28;20426;-69
2023/01/08 02:23:42;;;;;;;1999.90;999.90;;;11.40;99.90;;;;;;5034265;28;20415;-69
2023/01/08 02:26:27;;;;;;;1999.90;999.90;;;11.50;99.90;;;;;;5040531;28;20411;-69
2023/01/08 02:28:52;;;;;;;1999.90;999.90;;;11.40;99.90;;;;;;5040108;28;20793;-69
2023/01/08 02:31:21;;;;;;;1999.90;999.90;;;11.40;99.90;;;;;;5039888;28;20511;-69
2023/01/08 02:33:46;;;;;;;1999.90;999.90;;;11.40;99.90;;;;;;5040429;28;20200;-69
2023/01/08 02:36:27;;;;;;;1999.90;999.90;;;11.40;99.90;;;;;;5040565;28;20459;-69
2023/01/08 02:39:21;;;;;;;1999.90;999.90;;;11.40;99.90;;;;;;5039979;28;20214;-69
2023/01/08 02:42:07;;;;;;;1999.90;999.90;;;11.40;99.90;;;;;;5039709;28;20395;-69
2023/01/08 02:44:39;;;;;;;1999.90;999.90;;;11.30;99.90;;;;;;5039843;28;20788;-69
2023/01/08 02:47:09;;;;;;;1999.90;999.90;;;11.30;99.90;;;;;;5039691;28;20492;-69
2023/01/08 02:49:40;;;;;;;1999.90;999.90;;;11.20;1.00;;;;;;5039851;28;20415;-69
2023/01/08 02:52:09;;;;;;;1999.90;999.90;;;11.20;1.00;;;;;;5040045;28;20437;-69
2023/01/08 02:54:35;;;;;;;1999.90;999.90;;;11.10;1.00;;;;;;5039729;28;20438;-69
2023/01/08 02:57:13;;;;;;;1999.90;999.90;;;11.20;99.90;;;;;;5039694;28;20415;-69
2023/01/08 02:59:41;;;;;;;1999.90;999.90;;;11.20;99.90;;;;;;5039199;28;21005;-69
2023/01/08 03:02:07;;;;;;;1999.90;999.90;;;11.20;99.90;;;;;;5040103;28;20443;-69
2023/01/08 03:04:45;;;;;;;1999.90;999.90;;;11.30;99.90;;;;;;5039895;28;20477;-69
2023/01/08 03:07:11;;;;;;;1999.90;999.90;;;11.30;99.90;;;;;;5039932;28;20446;-69
2023/01/08 03:09:36;;;;;;;1999.90;999.90;;;11.30;99.90;;;;;;5039104;28;20418;-70
2023/01/08 03:12:15;;;;;;;1999.90;999.90;;;11.30;99.90;;;;;;5039685;28;20183;-69
2023/01/08 03:14:55;;;;;;;1999.90;999.90;;;11.30;99.90;;;;;;5039602;28;20252;-70
2023/01/08 03:17:26;;;;;;;1999.90;999.90;;;11.30;99.90;;;;;;5038964;28;20462;-69
2023/01/08 03:19:58;;;;;;;1999.90;999.90;;;11.30;99.90;;;;;;5039467;28;20406;-70
2023/01/08 03:22:25;;;;;;;1999.90;999.90;;;11.30;99.90;;;;;;5038102;28;20876;-70
2023/01/08 03:24:52;;;;;;;1999.90;999.90;;;11.30;99.90;;;;;;5038331;28;20427;-70
2023/01/08 03:27:24;;;;;;;1999.90;999.90;;;11.30;99.90;;;;;;5038872;28;20411;-70
2023/01/08 03:29:52;;;;;;;1999.90;999.90;;;11.30;99.90;;;;;;5037974;28;20882;-69
2023/01/08 03:32:21;;;;;;;1999.90;999.90;;;11.30;99.90;;;;;;5036522;28;20443;-69
2023/01/08 03:34:49;;;;;;;1999.90;999.90;;;11.30;99.90;;;;;;5044139;28;20544;-69
2023/01/08 03:37:17;;;;;;;1999.90;999.90;;;11.30;99.90;;;;;;5043834;28;20407;-69
2023/01/08 03:39:48;;;;;;;1999.90;999.90;;;11.30;99.90;;;;;;5047231;28;20421;-69
2023/01/08 03:42:16;;;;;;;1999.90;999.90;;;11.30;99.90;;;;;;5048339;28;20792;-69
2023/01/08 03:44:42;;;;;;;1999.90;999.90;;;11.40;99.90;;;;;;5048665;28;20426;-69
2023/01/08 03:47:10;;;;;;;1999.90;999.90;;;11.40;83.20;;;;;;5045617;28;20407;-69
2023/01/08 03:49:37;;;;;;;1999.90;999.90;;;11.40;99.90;;;;;;5045729;28;20179;-69
2023/01/08 03:52:03;;;;;;;1999.90;999.90;;;11.40;99.90;;;;;;5047396;28;20423;-69
2023/01/08 03:54:31;;;;;;;1999.90;999.90;;;11.40;24.20;;;;;;5046285;28;20458;-69
2023/01/08 03:56:57;;;;;;;1999.90;999.90;;;11.40;69.60;;;;;;5047878;28;20198;-69
2023/01/08 03:59:23;;;;;;;1999.90;999.90;;;11.40;3.80;;;;;;5044681;28;20423;-69
2023/01/08 04:01:49;;;;;;;1999.90;999.90;;;11.40;1.00;;;;;;5037218;28;20214;-70
2023/01/08 04:04:14;;;;;;;1999.90;999.90;;;11.40;1.00;;;;;;5037563;28;20195;-70
2023/01/08 04:06:40;;;;;;;1999.90;999.90;;;11.40;1.00;;;;;;5036415;28;20813;-69
2023/01/08 04:09:05;;;;;;;1999.90;999.90;;;11.40;1.00;;;;;;5037853;28;20172;-69
2023/01/08 04:11:31;;;;;;;1999.90;999.90;;;11.50;1.00;;;;;;5038366;28;20243;-69
2023/01/08 04:13:57;;;;;;;1999.90;999.90;;;11.50;1.00;;;;;;5038218;28;20611;-69
2023/01/08 04:16:23;;;;;;;1999.90;999.90;;;11.50;1.00;;;;;;5038052;28;20477;-69
2023/01/08 04:18:48;;;;;;;1999.90;999.90;;;11.50;1.00;;;;;;5037835;28;20732;-69
2023/01/08 04:21:14;;;;;;;1999.90;999.90;;;11.50;1.00;;;;;;5037149;28;20174;-69
2023/01/08 04:23:39;;;;;;;1999.90;999.90;;;11.40;1.00;;;;;;5037311;28;20250;-69
2023/01/08 04:26:09;;;;;;;1999.90;999.90;;;11.40;1.00;;;;;;5037234;28;20176;-69
2023/01/08 04:28:35;;;;;;;1999.90;999.90;;;11.40;1.00;;;;;;5037944;28;20183;-69
2023/01/08 04:31:08;;;;;;;1999.90;999.90;;;11.40;1.00;;;;;;5038018;28;20418;-69
2023/01/08 04:33:34;;;;;;;1999.90;999.90;;;11.50;99.90;;;;;;5037609;28;20517;-69
2023/01/08 04:36:00;;;;;;;1999.90;999.90;;;11.50;99.90;;;;;;5036304;28;21040;-70
2023/01/08 04:38:25;;;;;;;1999.90;999.90;;;11.50;1.00;;;;;;5042267;28;20431;-69
2023/01/08 04:40:57;;;;;;;1999.90;999.90;;;11.50;1.00;;;;;;5047880;28;20629;-69
2023/01/08 04:43:22;;;;;;;1999.90;999.90;;;11.60;1.00;;;;;;5043735;28;20235;-69
2023/01/08 04:45:48;;;;;;;1999.90;999.90;;;11.60;1.00;;;;;;5046213;28;20470;-69
2023/01/08 04:48:14;;;;;;;1999.90;999.90;;;11.60;1.00;;;;;;5045477;28;20178;-69
2023/01/08 04:50:39;;;;;;;1999.90;999.90;;;11.60;1.00;;;;;;5044476;28;20184;-69
2023/01/08 04:53:05;;;;;;;1999.90;999.90;;;11.50;1.00;;;;;;5045059;28;20657;-69
2023/01/08 04:55:30;;;;;;;1999.90;999.90;;;11.50;60.00;;;;;;5049414;28;20200;-69
2023/01/08 04:57:56;;;;;;;1999.90;999.90;;;11.50;1.00;;;;;;5049597;28;20171;-69
2023/01/08 05:00:21;;;;;;;1999.90;999.90;;;11.40;1.00;;;;;;5048640;28;20171;-69
2023/01/08 05:02:47;;;;;;;1999.90;999.90;;;11.40;1.00;;;;;;5042632;28;20175;-69
2023/01/08 05:05:13;;;;;;;1999.90;999.90;;;11.40;1.00;;;;;;5036479;28;20195;-69
2023/01/08 05:07:38;;;;;;;1999.90;999.90;;;11.30;1.00;;;;;;5036434;28;20650;-69
2023/01/08 05:10:04;;;;;;;1999.90;999.90;;;11.40;1.00;;;;;;5036476;28;20175;-69
2023/01/08 05:12:30;;;;;;;1999.90;999.90;;;11.30;99.90;;;;;;5035889;28;20220;-69
2023/01/08 05:14:55;;;;;;;1999.90;999.90;;;11.30;99.90;;;;;;5036627;28;20537;-69
2023/01/08 05:17:21;;;;;;;1999.90;999.90;;;11.30;1.00;;;;;;5035772;28;20180;-70
2023/01/08 05:19:46;;;;;;;1999.90;999.90;;;11.20;54.90;;;;;;5036608;28;20175;-69
2023/01/08 05:22:12;;;;;;;1999.90;999.90;;;11.10;99.90;;;;;;5037345;28;20618;-69
2023/01/08 05:24:37;;;;;;;1999.90;999.90;;;11.20;99.90;;;;;;5037160;28;20199;-69
2023/01/08 05:27:03;;;;;;;1999.90;999.90;;;11.10;99.90;;;;;;5036380;28;20179;-70
2023/01/08 05:29:29;;;;;;;1999.90;999.90;;;11.10;99.90;;;;;;5036649;28;20204;-69
2023/01/08 05:31:54;;;;;;;1999.90;999.90;;;11.10;99.90;;;;;;5036567;28;20177;-69
2023/01/08 05:34:20;;;;;;;1999.90;999.90;;;11.00;1.00;;;;;;5035711;28;20718;-70
2023/01/08 05:36:45;;;;;;;1999.90;999.90;;;11.00;99.90;;;;;;5036723;28;20259;-69
2023/01/08 05:39:11;;;;;;;1999.90;999.90;;;11.10;99.90;;;;;;5035999;28;20171;-69
2023/01/08 05:41:36;;;;;;;1999.90;999.90;;;11.10;1.00;;;;;;5036790;28;20178;-69
2023/01/08 05:44:02;;;;;;;1999.90;999.90;;;11.10;99.90;;;;;;5036613;28;20192;-69
2023/01/08 05:46:27;;;;;;;1999.90;999.90;;;11.10;99.90;;;;;;5036396;28;20638;-70
2023/01/08 05:48:53;;;;;;;1999.90;999.90;;;11.10;99.90;;;;;;5036586;28;20175;-69
2023/01/08 05:51:19;;;;;;;1999.90;999.90;;;11.10;99.90;;;;;;5033831;28;20176;-70
2023/01/08 05:53:44;;;;;;;1999.90;999.90;;;11.00;99.90;;;;;;5039162;28;20203;-69
2023/01/08 05:56:11;;;;;;;1999.90;999.90;;;10.90;99.90;;;;;;5040379;28;20196;-69
2023/01/08 05:58:37;;;;;;;1999.90;999.90;;;11.00;99.90;;;;;;5036374;28;20206;-69
2023/01/08 06:01:12;;;;;;;1999.90;999.90;;;10.90;99.90;;;;;;5037277;28;21101;-70
2023/01/08 06:03:38;;;;;;;1999.90;999.90;;;10.90;99.90;;;;;;5036472;28;20418;-70
2023/01/08 06:06:05;;;;;;;1999.90;999.90;;;10.90;99.90;;;;;;5035655;28;20929;-69
2023/01/08 06:08:31;;;;;;;1999.90;999.90;;;10.90;99.90;;;;;;5035966;28;20808;-70
2023/01/08 06:11:01;;;;;;;1999.90;999.90;;;10.90;99.90;;;;;;5036357;28;20407;-69
2023/01/08 06:13:27;;;;;;;1999.90;999.90;;;10.90;99.90;;;;;;5036248;28;20460;-70
2023/01/08 06:15:53;;;;;;;1999.90;999.90;;;10.80;99.90;;;;;;5035842;28;20458;-69
2023/01/08 06:18:18;;;;;;;1999.90;999.90;;;10.80;99.90;;;;;;5036125;28;21276;-70
2023/01/08 06:20:44;;;;;;;1999.90;999.90;;;10.80;99.90;;;;;;5035621;28;20187;-70
2023/01/08 06:23:10;;;;;;;1999.90;999.90;;;10.90;1.00;;;;;;5035329;28;20169;-69
2023/01/08 06:25:35;;;;;;;1999.90;999.90;;;11.00;99.90;;;;;;5036078;28;20192;-69
2023/01/08 06:28:02;;;;;;;1999.90;999.90;;;11.00;99.90;;;;;;5037043;28;20167;-70
2023/01/08 06:30:28;;;;;;;1999.90;999.90;;;11.00;99.90;;;;;;5038739;28;20442;-70
2023/01/08 06:32:58;;;;;;;1999.90;999.90;;;10.90;99.90;;;;;;5035086;28;20407;-71
2023/01/08 06:35:24;;;;;;;1999.90;999.90;;;10.00;99.90;;;;;;5034819;28;20199;-72
2023/01/08 06:37:50;;;;;;;1999.90;999.90;;;9.50;1.00;;;;;;5034789;28;20888;-72
2023/01/08 06:40:16;;;;;;;1999.90;999.90;;;9.10;1.00;;;;;;5034679;28;20409;-69
2023/01/08 06:42:42;;;;;;;1999.90;999.90;;;8.80;1.10;;;;;;5036414;28;20406;-71
2023/01/08 06:45:09;;;;;;;1999.90;999.90;;;8.70;19.50;;;;;;5039762;28;20225;-69
2023/01/08 06:47:34;;;;;;;1999.90;999.90;;;8.50;54.70;;;;;;5035185;28;20848;-71
2023/01/08 06:50:00;;;;;;;1999.90;999.90;;;8.30;95.30;;;;;;5036773;28;20446;-70
2023/01/08 06:52:26;;;;;;;1999.90;999.90;;;8.30;99.90;;;;;;5036835;28;20214;-71
2023/01/08 06:54:51;;;;;;;1999.90;999.90;;;8.30;99.90;;;;;;5036657;28;20407;-70
2023/01/08 06:57:17;;;;;;;1999.90;999.90;;;8.30;99.90;;;;;;5040083;28;20168;-70
2023/01/08 06:59:42;;;;;;;1999.90;999.90;;;8.30;99.90;;;;;;5043521;28;20175;-69
2023/01/08 07:02:16;;;;;;;1999.90;999.90;;;8.30;99.90;;;;;;5044383;28;20260;-71
2023/01/08 07:04:41;;;;;;;1999.90;999.90;;;8.20;99.90;;;;;;5042073;28;20209;-70
2023/01/08 07:07:07;;;;;;;1999.90;999.90;;;8.20;99.90;;;;;;5034971;28;20888;-70
2023/01/08 07:09:34;;;;;;;1999.90;999.90;;;8.20;99.90;;;;;;5038037;28;20530;-70
2023/01/08 07:11:59;;;;;;;1999.90;999.90;;;8.20;99.90;;;;;;5035166;28;20173;-71
2023/01/08 07:14:25;;;;;;;1999.90;999.90;;;8.20;99.90;;;;;;5034713;28;20429;-70
2023/01/08 07:16:50;;;;;;;1999.90;999.90;;;8.30;99.90;;;;;;5034894;28;20178;-70
2023/01/08 07:19:16;;;;;;;1999.90;999.90;;;8.40;99.90;;;;;;5035197;28;20178;-70
2023/01/08 07:21:42;;;;;;;1999.90;999.90;;;8.40;99.90;;;;;;5035294;28;20184;-70
2023/01/08 07:24:10;;;;;;;1999.90;999.90;;;8.40;99.90;;;;;;5035576;28;20193;-70
2023/01/08 07:26:38;;;;;;;1999.90;999.90;;;8.50;99.90;;;;;;5034253;28;20204;-69
2023/01/08 07:29:03;;;;;;;1999.90;999.90;;;8.60;99.90;;;;;;5033715;28;20474;-70
2023/01/08 07:31:29;;;;;;;1999.90;999.90;;;8.60;99.90;;;;;;5034034;28;20406;-69
2023/01/08 07:33:55;;;;;;;1999.90;999.90;;;8.70;86.20;;;;;;5032602;28;20218;-69
2023/01/08 07:36:21;;;;;;;1999.90;999.90;;;8.80;42.70;;;;;;5033649;28;20667;-69
2023/01/08 07:38:50;;;;;;;1999.90;999.90;;;8.90;25.80;;;;;;5033443;28;20176;-69
2023/01/08 07:41:16;;;;;;;1999.90;999.90;;;8.90;11.50;;;;;;5032720;28;20428;-70
2023/01/08 07:43:42;;;;;;;1999.90;999.90;;;9.00;2.30;;;;;;5033606;28;20422;-70
2023/01/08 07:46:08;;;;;;;1999.90;999.90;;;9.00;1.00;;;;;;5033581;28;20404;-70
2023/01/08 07:48:33;;;;;;;1999.90;999.90;;;9.10;1.00;;;;;;5033503;28;20179;-70
2023/01/08 07:51:04;;;;;;;1999.90;999.90;;;9.10;1.00;;;;;;5033788;28;20998;-70
2023/01/08 07:53:30;;;;;;;1999.90;999.90;;;9.20;1.00;;;;;;5035927;28;20214;-70
2023/01/08 07:56:04;;;;;;;1999.90;999.90;;;9.20;1.00;;;;;;5036551;28;20446;-70
2023/01/08 07:58:30;;;;;;;1999.90;999.90;;;9.20;1.00;;;;;;5036365;28;20199;-70
2023/01/08 08:00:56;;;;;;;1999.90;999.90;;;9.20;1.00;;;;;;5035967;28;20402;-70
2023/01/08 08:03:22;;;;;;;1999.90;999.90;;;9.30;1.00;;;;;;5036294;28;20501;-70
2023/01/08 08:05:48;;;;;;;1999.90;999.90;;;9.30;1.00;;;;;;5042149;28;20421;-71
2023/01/08 08:08:13;;;;;;;1999.90;999.90;;;9.30;1.00;;;;;;5042514;28;20415;-70
2023/01/08 08:10:40;;;;;;;1999.90;999.90;;;9.30;1.00;;;;;;5042101;28;20172;-70
2023/01/08 08:13:06;;;;;;;1999.90;999.90;;;9.30;1.00;;;;;;5041468;28;20172;-70
2023/01/08 08:15:34;;;;;;;1999.90;999.90;;;9.30;1.00;;;;;;5042706;28;20521;-70
2023/01/08 08:18:00;;;;;;;1999.90;999.90;;;9.30;1.00;;;;;;5041025;28;20797;-70
2023/01/08 08:20:26;;;;;;;1999.90;999.90;;;9.30;1.00;;;;;;5038327;28;20900;-71
2023/01/08 08:22:58;;;;;;;1999.90;999.90;;;9.30;1.00;;;;;;5036511;28;20438;-70
2023/01/08 08:25:24;;;;;;;1999.90;999.90;;;9.30;1.00;;;;;;5036989;28;20426;-71
2023/01/08 08:27:49;;;;;;;1999.90;999.90;;;9.30;1.00;;;;;;5038734;28;20406;-69
2023/01/08 08:30:15;;;;;;;1999.90;999.90;;;9.30;1.00;;;;;;5032568;28;20171;-69
2023/01/08 08:32:40;;;;;;;1999.90;999.90;;;9.30;1.00;;;;;;5032797;28;20191;-68
2023/01/08 08:35:06;;;;;;;1999.90;999.90;;;9.30;1.00;;;;;;5032542;28;20205;-69
2023/01/08 08:37:32;;;;;;;1999.90;999.90;;;9.40;1.00;;;;;;5038505;28;20257;-70
2023/01/08 08:39:57;;;;;;;1999.90;999.90;;;9.30;1.00;;;;;;5041463;28;20409;-70
2023/01/08 08:42:23;;;;;;;1999.90;999.90;;;9.30;1.00;;;;;;5038251;28;20197;-69
2023/01/08 08:44:49;;;;;;;1999.90;999.90;;;9.20;1.00;;;;;;5038111;28;20203;-71
2023/01/08 08:47:14;;;;;;;1999.90;999.90;;;9.20;1.00;;;;;;5039072;28;20186;-69
2023/01/08 08:49:40;;;;;;;1999.90;999.90;;;9.10;1.00;;;;;;5037117;28;20175;-71
2023/01/08 08:52:06;;;;;;;1999.90;999.90;;;9.10;1.00;;;;;;5035802;28;20188;-70
2023/01/08 08:54:31;;;;;;;1999.90;999.90;;;9.00;1.00;;;;;;5039343;28;20195;-70
2023/01/08 08:56:57;;;;;;;1999.90;999.90;;;9.00;1.00;;;;;;5040534;28;20185;-70
2023/01/08 08:59:22;;;;;;;1999.90;999.90;;;8.90;1.00;;;;;;5040550;28;20640;-71
2023/01/08 09:01:48;;;;;;;1999.90;999.90;;;8.90;1.00;;;;;;5041998;28;20171;-70
2023/01/08 09:04:13;;;;;;;1999.90;999.90;;;8.90;1.00;;;;;;5041339;28;20190;-69
2023/01/08 09:06:39;;;;;;;1999.90;999.90;;;9.00;1.00;;;;;;5042106;28;20652;-70
2023/01/08 09:09:05;;;;;;;1999.90;999.90;;;8.90;1.00;;;;;;5041610;28;20260;-70
2023/01/08 09:11:31;;;;;;;1999.90;999.90;;;9.00;1.00;;;;;;5041231;28;20271;-70
2023/01/08 09:13:56;;;;;;;1999.90;999.90;;;9.00;1.00;;;;;;5041147;28;20230;-70
2023/01/08 09:16:22;;;;;;;1999.90;999.90;;;9.00;1.00;;;;;;5041427;28;20476;-69
2023/01/08 09:18:48;;;;;;;1999.90;999.90;;;9.20;1.00;;;;;;5040151;28;20277;-70
2023/01/08 09:21:14;;;;;;;1999.90;999.90;;;9.30;1.00;;;;;;5040410;28;20175;-70
2023/01/08 09:23:40;;;;;;;1999.90;999.90;;;9.50;1.00;;;;;;5039289;28;20851;-71
2023/01/08 09:26:06;;;;;;;1999.90;999.90;;;9.70;1.00;;;;;;5039975;28;20418;-71
2023/01/08 09:28:32;;;;;;;1999.90;999.90;;;9.70;1.00;;;;;;5040511;28;20576;-70
2023/01/08 09:31:02;;;;;;;1999.90;999.90;;;9.80;1.00;;;;;;5040338;28;20418;-70
2023/01/08 09:33:28;;;;;;;1999.90;999.90;;;10.10;1.00;;;;;;5039280;28;20418;-71
2023/01/08 09:35:54;;;;;;;1999.90;999.90;;;9.80;1.00;;;;;;5037962;28;20493;-70
2023/01/08 09:38:20;;;;;;;1999.90;999.90;;;10.00;1.00;;;;;;5037543;28;20411;-70
2023/01/08 09:40:55;;;;;;;1999.90;999.90;;;10.00;1.00;;;;;;5037830;28;20168;-70
2023/01/08 09:43:23;;;;;;;1999.90;999.90;;;10.00;1.00;;;;;;5037780;28;20493;-70
2023/01/08 09:45:54;;;;;;;1999.90;999.90;;;10.20;1.00;;;;;;5038189;28;20644;-70
2023/01/08 09:48:25;;;;;;;1999.90;999.90;;;10.20;1.00;;;;;;5036709;28;20815;-69
2023/01/08 09:50:51;;;;;;;1999.90;999.90;;;10.20;1.00;;;;;;5031708;28;20403;-69
2023/01/08 09:53:17;;;;;;;1999.90;999.90;;;10.40;1.00;;;;;;5031633;28;20493;-69
2023/01/08 09:55:47;;;;;;;1999.90;999.90;;;10.60;99.90;;;;;;5031572;28;20212;-69
2023/01/08 09:58:33;;;;;;;1999.90;999.90;;;10.60;99.90;;;;;;5031386;28;20403;-69
2023/01/08 10:01:00;;;;;;;1999.90;999.90;;;10.60;1.00;;;;;;5031690;28;20408;-69
2023/01/08 10:03:36;;;;;;;1999.90;999.90;;;10.80;1.00;;;;;;5031519;28;20399;-69
2023/01/08 10:06:12;;;;;;;1999.90;999.90;;;10.70;99.90;;;;;;5035394;28;20517;-69
2023/01/08 10:08:37;;;;;;;1999.90;999.90;;;10.80;99.90;;;;;;5035332;28;20430;-69
2023/01/08 10:11:04;;;;;;;1999.90;999.90;;;10.80;99.90;;;;;;5035360;28;20797;-69
2023/01/08 10:13:31;;;;;;;1999.90;999.90;;;11.20;99.90;;;;;;5035178;28;20168;-69
2023/01/08 10:15:58;;;;;;;1999.90;999.90;;;11.00;99.90;;;;;;5035340;28;21119;-69
2023/01/08 10:18:25;;;;;;;1999.90;999.90;;;11.20;95.90;;;;;;5034931;28;20956;-70
2023/01/08 10:20:51;;;;;;;1999.90;999.90;;;11.40;99.90;;;;;;5035189;28;20976;-69
2023/01/08 10:23:19;;;;;;;1999.90;999.90;;;11.30;99.90;;;;;;5038696;28;20493;-70
2023/01/08 10:25:56;;;;;;;1999.90;999.90;;;11.50;61.10;;;;;;5037240;28;20184;-70
2023/01/08 10:28:26;;;;;;;1999.90;999.90;;;11.50;1.00;;;;;;5038195;28;20399;-71
2023/01/08 10:30:57;;;;;;;1999.90;999.90;;;11.70;1.00;;;;;;5038467;28;20558;-71
2023/01/08 10:33:28;;;;;;;1999.90;999.90;;;11.90;99.90;;;;;;5037373;28;20415;-70
2023/01/08 10:36:02;;;;;;;1999.90;999.90;;;11.80;99.90;;;;;;5039523;28;20450;-70
2023/01/08 10:38:32;;;;;;;1999.90;999.90;;;11.70;99.90;;;;;;5038048;28;20419;-70
2023/01/08 10:41:02;;;;;;;1999.90;999.90;;;11.70;1.00;;;;;;5038162;28;20414;-70
2023/01/08 10:43:33;;;;;;;1999.90;999.90;;;11.90;99.90;;;;;;5039765;28;20910;-70
2023/01/08 10:46:03;;;;;;;1999.90;999.90;;;12.00;99.90;;;;;;5036729;28;20416;-70
2023/01/08 10:48:45;;;;;;;1999.90;999.90;;;12.10;99.90;;;;;;5033726;28;20403;-70
2023/01/08 10:51:20;;;;;;;1999.90;999.90;;;12.20;10.20;;;;;;5034318;28;20411;-69
2023/01/08 10:53:46;;;;;;;1999.90;999.90;;;12.40;99.90;;;;;;5034380;28;20794;-70
2023/01/08 10:56:20;;;;;;;1999.90;999.90;;;12.60;1.00;;;;;;5033589;28;20468;-70
2023/01/08 10:58:48;;;;;;;1999.90;999.90;;;12.80;99.90;;;;;;5033872;28;20197;-70
2023/01/08 11:01:28;;;;;;;1999.90;999.90;;;12.90;99.90;;;;;;5034104;28;20415;-70
2023/01/08 11:03:57;;;;;;;1999.90;999.90;;;13.00;1.00;;;;;;5033534;28;20559;-70
2023/01/08 11:06:26;;;;;;;1999.90;999.90;;;13.20;99.90;;;;;;5033784;28;20780;-69
2023/01/08 11:08:55;;;;;;;1999.90;999.90;;;13.20;51.80;;;;;;5033779;28;20424;-69
2023/01/08 11:11:22;;;;;;;1999.90;999.90;;;13.10;1.00;;;;;;5034073;28;20918;-70
2023/01/08 11:14:11;;;;;;;1999.90;999.90;;;12.90;99.90;;;;;;5033954;28;20844;-69
2023/01/08 11:16:40;;;;;;;1999.90;999.90;;;12.70;1.00;;;;;;5033185;28;20470;-70
2023/01/08 11:19:16;;;;;;;1999.90;999.90;;;12.50;1.00;;;;;;5037742;28;20435;-70
2023/01/08 11:21:52;;;;;;;1999.90;999.90;;;12.30;1.00;;;;;;5038142;28;20441;-70
2023/01/08 11:24:22;;;;;;;1999.90;999.90;;;12.20;1.00;;;;;;5038129;28;20430;-70
2023/01/08 11:26:52;;;;;;;1999.90;999.90;;;12.20;99.90;;;;;;5034781;28;20411;-69
2023/01/08 11:29:37;;;;;;;1999.90;999.90;;;12.20;1.00;;;;;;5033553;28;20423;-70
2023/01/08 11:32:17;;;;;;;1999.90;999.90;;;12.20;99.90;;;;;;5033339;28;20391;-69
2023/01/08 11:35:00;;;;;;;1999.90;999.90;;;12.20;1.00;;;;;;5033343;28;20497;-69
2023/01/08 11:37:38;;;;;;;1999.90;999.90;;;12.60;99.90;;;;;;5033569;28;20789;-69
2023/01/08 11:40:13;;;;;;;1999.90;999.90;;;12.80;55.90;;;;;;5032866;28;20415;-69
2023/01/08 11:43:09;;;;;;;1999.90;999.90;;;13.10;99.90;;;;;;5033463;28;20400;-69
2023/01/08 11:46:05;;;;;;;1999.90;999.90;;;13.10;1.00;;;;;;5033377;28;21016;-70
2023/01/08 11:48:51;;;;;;;1999.90;999.90;;;12.70;1.00;;;;;;5033100;28;20403;-69
2023/01/08 11:51:27;;;;;;;1999.90;999.90;;;12.50;1.00;;;;;;5033277;28;20481;-69
2023/01/08 11:54:17;;;;;;;1999.90;999.90;;;12.30;1.00;;;;;;5032805;28;20428;-69
2023/01/08 11:56:45;;;;;;;1999.90;999.90;;;12.20;21.70;;;;;;5033030;28;20454;-69
2023/01/08 11:59:31;;;;;;;1999.90;999.90;;;12.20;96.10;;;;;;5032912;28;20411;-69
2023/01/08 12:02:20;;;;;;;1999.90;999.90;;;12.20;99.90;;;;;;5032727;28;20415;-69
2023/01/08 12:05:03;;;;;;;1999.90;999.90;;;12.50;1.00;;;;;;5032909;28;20484;-69
2023/01/08 12:07:43;;;;;;;1999.90;999.90;;;12.50;1.00;;;;;;5032922;28;20821;-69
2023/01/08 12:10:29;;;;;;;1999.90;999.90;;;12.50;99.90;;;;;;5032288;28;20412;-69
2023/01/08 12:13:03;;;;;;;1999.90;999.90;;;12.40;99.90;;;;;;5039373;28;20407;-70
2023/01/08 12:15:53;;;;;;;1999.90;999.90;;;12.40;99.90;;;;;;5032660;28;20508;-69